createdAt,value
2023-01-31T00:01:31.434Z,85.48
2023-01-31T00:04:02.471Z,85.59
2023-01-31T00:06:32.035Z,86.02
2023-01-31T00:09:02.125Z,86.19
2023-01-31T00:11:31.612Z,86.69
2023-01-31T00:14:02.418Z,86.46
2023-01-31T00:16:30.937Z,85.64
2023-01-31T00:19:02.070Z,85.48
2023-01-31T00:21:32.223Z,85.47
2023-01-31T00:24:01.387Z,84.60
2023-01-31T00:26:31.968Z,84.17
2023-01-31T00:29:03.089Z,84.23
2023-01-31T00:31:34.263Z,84.18
2023-01-31T00:34:03.233Z,84.00
2023-01-31T00:36:35.125Z,83.85
2023-01-31T00:39:06.057Z,83.70
2023-01-31T00:41:36.620Z,83.33
2023-01-31T00:44:07.136Z,83.08
2023-01-31T00:46:36.718Z,82.86
2023-01-31T00:49:05.728Z,82.30
2023-01-31T00:51:34.738Z,82.37
2023-01-31T00:54:03.826Z,82.32
2023-01-31T00:56:32.123Z,82.37
2023-01-31T00:59:01.292Z,82.46
2023-01-31T01:01:29.871Z,82.24
2023-01-31T01:03:58.447Z,82.36
2023-01-31T01:06:27.798Z,82.18
2023-01-31T01:08:59.043Z,81.87
2023-01-31T01:11:29.497Z,82.02
2023-01-31T01:13:59.063Z,82.22
2023-01-31T01:16:34.288Z,82.23
2023-01-31T01:19:06.177Z,82.24
2023-01-31T01:21:38.332Z,82.54
2023-01-31T01:24:12.732Z,82.13
2023-01-31T01:26:43.235Z,82.18
2023-01-31T01:29:12.074Z,82.04
2023-01-31T01:31:40.740Z,82.32
2023-01-31T01:34:13.519Z,82.47
2023-01-31T01:36:41.542Z,82.62
2023-01-31T01:39:11.887Z,82.83
2023-01-31T01:41:40.745Z,83.10
2023-01-31T01:44:43.962Z,83.07
2023-01-31T01:47:21.467Z,83.02
2023-01-31T01:49:54.478Z,82.91
2023-01-31T01:52:24.946Z,82.84
2023-01-31T01:54:58.247Z,82.62
2023-01-31T01:57:30.576Z,82.60
2023-01-31T02:00:08.293Z,82.06
2023-01-31T02:02:43.811Z,81.87
2023-01-31T02:05:15.907Z,81.90
2023-01-31T02:07:44.437Z,81.65
2023-01-31T02:10:17.122Z,81.37
2023-01-31T02:12:44.779Z,81.08
2023-01-31T02:15:13.736Z,80.99
2023-01-31T02:17:42.313Z,80.24
2023-01-31T02:20:26.560Z,80.11
2023-01-31T02:23:13.075Z,80.13
2023-01-31T02:26:06.327Z,80.16
2023-01-31T02:28:59.606Z,80.28
2023-01-31T02:31:54.321Z,80.28
2023-01-31T02:34:34.389Z,80.26
2023-01-31T02:37:13.034Z,79.95
2023-01-31T02:39:52.918Z,79.79
2023-01-31T02:42:29.419Z,80.11
2023-01-31T02:45:09.008Z,80.11
2023-01-31T02:47:50.804Z,80.19
2023-01-31T02:50:26.128Z,80.30
2023-01-31T02:53:02.980Z,80.05
2023-01-31T02:55:56.929Z,80.27
2023-01-31T02:58:28.461Z,80.06
2023-01-31T03:01:00.269Z,79.96
2023-01-31T03:03:31.769Z,79.63
2023-01-31T03:06:36.822Z,79.54
2023-01-31T03:09:12.988Z,79.57
2023-01-31T03:11:52.677Z,79.42
2023-01-31T03:14:30.461Z,79.14
2023-01-31T03:17:24.473Z,78.94
2023-01-31T03:20:03.632Z,78.89
2023-01-31T03:22:36.917Z,78.49
2023-01-31T03:25:10.408Z,78.34
2023-01-31T03:27:43.651Z,78.51
2023-01-31T03:30:18.568Z,78.18
2023-01-31T03:32:53.773Z,77.89
2023-01-31T03:35:27.340Z,77.71
2023-01-31T03:38:02.973Z,77.46
2023-01-31T03:40:37.948Z,77.30
2023-01-31T03:43:13.708Z,77.31
2023-01-31T03:45:48.492Z,77.22
2023-01-31T03:48:21.968Z,77.00
2023-01-31T03:50:57.214Z,76.83
2023-01-31T03:53:32.548Z,76.76
2023-01-31T03:56:05.607Z,76.74
2023-01-31T03:58:36.422Z,76.49
2023-01-31T04:01:09.352Z,76.67
2023-01-31T04:03:41.218Z,76.79
2023-01-31T04:06:12.162Z,76.89
2023-01-31T04:08:41.755Z,76.37
2023-01-31T04:11:14.034Z,76.21
2023-01-31T04:13:42.903Z,75.89
2023-01-31T04:16:11.378Z,76.26
2023-01-31T04:18:39.861Z,76.28
2023-01-31T04:21:09.199Z,75.98
2023-01-31T04:23:37.702Z,75.80
2023-01-31T04:26:05.976Z,75.50
2023-01-31T04:28:34.416Z,75.46
2023-01-31T04:31:02.921Z,75.23
2023-01-31T04:33:31.995Z,75.35
2023-01-31T04:36:00.383Z,75.38
2023-01-31T04:38:28.655Z,75.18
2023-01-31T04:40:56.986Z,75.08
2023-01-31T04:43:25.276Z,74.96
2023-01-31T04:45:53.657Z,75.08
2023-01-31T04:48:21.925Z,75.37
2023-01-31T04:50:50.608Z,75.11
2023-01-31T04:53:21.299Z,75.09
2023-01-31T04:55:49.743Z,75.14
2023-01-31T04:58:18.311Z,75.43
2023-01-31T05:00:46.824Z,75.60
2023-01-31T05:03:15.344Z,75.74
2023-01-31T05:05:43.613Z,75.97
2023-01-31T05:08:12.417Z,75.75
2023-01-31T05:10:42.259Z,75.84
2023-01-31T05:13:10.949Z,75.92
2023-01-31T05:15:40.460Z,75.56
2023-01-31T05:18:08.838Z,75.49
2023-01-31T05:20:40.076Z,75.64
2023-01-31T05:23:09.060Z,75.40
2023-01-31T05:25:38.136Z,75.39
2023-01-31T05:28:06.831Z,75.32
2023-01-31T05:30:37.011Z,75.49
2023-01-31T05:33:05.410Z,75.61
2023-01-31T05:35:33.738Z,75.73
2023-01-31T05:38:02.304Z,75.84
2023-01-31T05:40:31.192Z,76.04
2023-01-31T05:43:00.284Z,76.16
2023-01-31T05:45:29.541Z,76.17
2023-01-31T05:47:58.514Z,76.13
2023-01-31T05:50:27.325Z,76.11
2023-01-31T05:52:58.868Z,75.45
2023-01-31T05:55:28.483Z,75.21
2023-01-31T05:57:57.148Z,74.83
2023-01-31T06:00:26.456Z,74.27
2023-01-31T06:02:58.700Z,73.99
2023-01-31T06:05:28.768Z,73.50
2023-01-31T06:07:57.128Z,72.90
2023-01-31T06:10:25.635Z,72.75
2023-01-31T06:12:54.160Z,72.76
2023-01-31T06:15:22.836Z,73.03
2023-01-31T06:17:51.161Z,72.68
2023-01-31T06:20:19.985Z,72.77
2023-01-31T06:22:48.265Z,72.65
2023-01-31T06:25:16.888Z,72.73
2023-01-31T06:27:45.638Z,72.88
2023-01-31T06:30:14.958Z,73.23
2023-01-31T06:32:43.854Z,73.30
2023-01-31T06:35:12.320Z,73.46
2023-01-31T06:37:41.384Z,73.89
2023-01-31T06:40:12.410Z,74.27
2023-01-31T06:42:40.809Z,74.40
2023-01-31T06:45:11.253Z,74.71
2023-01-31T06:47:39.863Z,75.03
2023-01-31T06:50:12.018Z,75.51
2023-01-31T06:52:40.772Z,75.95
2023-01-31T06:55:10.890Z,76.11
2023-01-31T06:57:46.365Z,76.54
2023-01-31T07:00:18.157Z,77.00
2023-01-31T07:02:47.213Z,77.28
2023-01-31T07:05:16.382Z,77.81
2023-01-31T07:07:45.849Z,78.59
2023-01-31T07:10:15.205Z,78.93
2023-01-31T07:12:43.661Z,79.07
2023-01-31T07:15:12.825Z,79.28
2023-01-31T07:17:41.197Z,79.35
2023-01-31T07:20:12.390Z,79.34
2023-01-31T07:22:41.417Z,79.33
2023-01-31T07:25:10.287Z,79.49
2023-01-31T07:27:38.704Z,79.46
2023-01-31T07:30:10.028Z,79.35
2023-01-31T07:32:39.057Z,79.33
2023-01-31T07:35:09.672Z,79.11
2023-01-31T07:37:39.885Z,79.18
2023-01-31T07:40:12.967Z,78.91
2023-01-31T07:42:42.310Z,79.04
2023-01-31T07:45:22.880Z,79.00
2023-01-31T07:47:52.648Z,79.03
2023-01-31T07:50:21.662Z,79.06
2023-01-31T07:52:50.586Z,79.06
2023-01-31T07:55:19.787Z,79.14
2023-01-31T07:57:49.007Z,79.45
2023-01-31T08:00:38.754Z,79.51
2023-01-31T08:03:32.163Z,78.79
2023-01-31T08:06:02.248Z,78.72
2023-01-31T08:08:31.012Z,78.66
2023-01-31T08:10:59.979Z,78.82
2023-01-31T08:13:30.477Z,78.73
2023-01-31T08:16:00.125Z,78.87
2023-01-31T08:18:29.264Z,78.62
2023-01-31T08:20:59.760Z,78.52
2023-01-31T08:23:32.096Z,78.43
2023-01-31T08:26:03.138Z,78.22
2023-01-31T08:28:32.768Z,78.28
2023-01-31T08:31:08.963Z,77.97
2023-01-31T08:33:38.549Z,77.66
2023-01-31T08:36:12.569Z,77.60
2023-01-31T08:38:41.477Z,77.77
2023-01-31T08:41:10.058Z,77.86
2023-01-31T08:43:52.860Z,77.74
2023-01-31T08:46:24.144Z,77.64
2023-01-31T08:48:52.754Z,77.51
2023-01-31T08:51:22.395Z,77.73
2023-01-31T08:53:52.322Z,77.44
2023-01-31T08:56:25.139Z,77.56
2023-01-31T08:58:55.156Z,77.57
2023-01-31T09:01:24.820Z,77.38
2023-01-31T09:03:56.007Z,77.61
2023-01-31T09:06:27.877Z,77.60
2023-01-31T09:08:57.554Z,77.68
2023-01-31T09:11:30.054Z,77.88
2023-01-31T09:13:59.814Z,77.66
2023-01-31T09:16:29.100Z,77.81
2023-01-31T09:18:58.373Z,77.87
2023-01-31T09:21:30.111Z,78.06
2023-01-31T09:24:03.137Z,78.03
2023-01-31T09:26:33.136Z,77.87
2023-01-31T09:29:02.189Z,77.65
2023-01-31T09:31:31.355Z,77.31
2023-01-31T09:34:00.644Z,77.18
2023-01-31T09:36:30.153Z,77.24
2023-01-31T09:38:59.053Z,76.80
2023-01-31T09:41:33.814Z,76.85
2023-01-31T09:44:06.409Z,77.19
2023-01-31T09:46:39.020Z,76.95
2023-01-31T09:49:09.715Z,77.05
2023-01-31T09:51:40.113Z,77.00
2023-01-31T09:54:19.611Z,77.12
2023-01-31T09:57:00.398Z,77.03
2023-01-31T09:59:37.000Z,77.66
2023-01-31T10:02:29.983Z,77.85
2023-01-31T10:05:12.581Z,78.03
2023-01-31T10:07:49.666Z,78.05
2023-01-31T10:10:28.936Z,78.23
2023-01-31T10:13:02.609Z,77.80
2023-01-31T10:15:36.623Z,77.50
2023-01-31T10:18:12.256Z,76.63
2023-01-31T10:20:47.714Z,76.06
2023-01-31T10:23:23.219Z,75.88
2023-01-31T10:25:57.614Z,75.47
2023-01-31T10:28:32.578Z,74.48
2023-01-31T10:31:07.102Z,73.67
2023-01-31T10:33:43.769Z,74.10
2023-01-31T10:36:18.638Z,73.93
2023-01-31T10:38:59.953Z,73.77
2023-01-31T10:41:40.923Z,74.66
2023-01-31T10:44:21.991Z,74.94
2023-01-31T10:46:52.327Z,75.44
2023-01-31T10:49:24.474Z,75.08
2023-01-31T10:52:07.989Z,75.44
2023-01-31T10:54:48.597Z,75.41
2023-01-31T10:57:17.984Z,75.53
2023-01-31T10:59:49.103Z,75.52
2023-01-31T11:02:21.881Z,75.33
2023-01-31T11:04:53.071Z,75.05
2023-01-31T11:07:23.347Z,75.23
2023-01-31T11:09:53.829Z,75.73
2023-01-31T11:12:39.222Z,75.46
2023-01-31T11:15:16.724Z,75.76
2023-01-31T11:17:47.318Z,75.38
2023-01-31T11:20:30.542Z,75.57
2023-01-31T11:23:01.058Z,75.84
2023-01-31T11:25:33.547Z,75.79
2023-01-31T11:28:16.193Z,75.58
2023-01-31T11:30:49.848Z,75.87
2023-01-31T11:33:44.593Z,76.00
2023-01-31T11:36:15.670Z,76.05
2023-01-31T11:38:44.301Z,76.20
2023-01-31T11:41:31.962Z,76.34
2023-01-31T11:44:15.512Z,75.91
2023-01-31T11:46:48.549Z,75.66
2023-01-31T11:49:23.876Z,75.82
2023-01-31T11:51:52.948Z,75.80
2023-01-31T11:54:25.596Z,75.82
2023-01-31T11:56:55.858Z,75.82
2023-01-31T11:59:29.423Z,75.96
2023-01-31T12:02:00.981Z,75.96
2023-01-31T12:04:39.781Z,76.39
2023-01-31T12:07:24.517Z,77.08
2023-01-31T12:09:53.283Z,78.01
2023-01-31T12:12:30.658Z,78.82
2023-01-31T12:15:05.432Z,80.07
2023-01-31T12:17:42.984Z,81.34
2023-01-31T12:20:28.119Z,82.34
2023-01-31T12:23:10.424Z,83.28
2023-01-31T12:25:52.488Z,84.02
2023-01-31T12:28:35.614Z,85.09
2023-01-31T12:31:18.990Z,85.87
2023-01-31T12:34:07.162Z,86.75
2023-01-31T12:36:47.021Z,87.24
2023-01-31T12:39:30.279Z,88.03
2023-01-31T12:42:12.190Z,88.28
2023-01-31T12:44:49.523Z,88.60
2023-01-31T12:47:42.113Z,89.19
2023-01-31T12:50:31.127Z,89.80
2023-01-31T12:53:20.108Z,90.41
2023-01-31T12:55:58.053Z,90.45
2023-01-31T12:58:44.457Z,90.29
2023-01-31T13:01:17.726Z,91.18
2023-01-31T13:04:02.861Z,91.65
2023-01-31T13:06:36.183Z,92.44
2023-01-31T13:09:10.238Z,93.19
2023-01-31T13:11:43.811Z,93.58
2023-01-31T13:14:19.901Z,94.44
2023-01-31T13:16:53.061Z,94.20
2023-01-31T13:19:27.197Z,93.88
2023-01-31T13:21:58.669Z,94.69
2023-01-31T13:24:30.983Z,95.24
2023-01-31T13:27:03.725Z,94.74
2023-01-31T13:29:38.272Z,94.88
2023-01-31T13:32:12.641Z,95.35
2023-01-31T13:34:51.507Z,95.54
2023-01-31T13:37:21.661Z,95.61
2023-01-31T13:39:54.908Z,95.46
2023-01-31T13:42:23.755Z,95.79
2023-01-31T13:44:54.202Z,95.86
2023-01-31T13:47:27.003Z,95.85
2023-01-31T13:49:56.844Z,96.08
2023-01-31T13:52:30.960Z,96.61
2023-01-31T13:55:03.597Z,96.83
2023-01-31T13:57:34.648Z,96.93
2023-01-31T14:00:18.342Z,96.53
2023-01-31T14:03:01.087Z,97.01
2023-01-31T14:05:58.001Z,97.05
2023-01-31T14:08:36.491Z,97.58
2023-01-31T14:11:33.131Z,97.91
2023-01-31T14:14:39.384Z,98.58
2023-01-31T14:17:12.279Z,99.22
2023-01-31T14:19:54.794Z,99.13
2023-01-31T14:22:26.132Z,99.30
2023-01-31T14:25:00.216Z,99.16
2023-01-31T14:27:44.759Z,98.88
2023-01-31T14:30:38.709Z,98.92
2023-01-31T14:33:19.313Z,98.59
2023-01-31T14:36:15.553Z,98.41
2023-01-31T14:39:16.109Z,98.44
2023-01-31T14:42:05.381Z,98.73
2023-01-31T14:44:47.253Z,98.95
2023-01-31T14:47:29.704Z,99.17
2023-01-31T14:50:35.437Z,99.24
2023-01-31T14:53:32.166Z,99.59
2023-01-31T14:56:15.921Z,100.00
2023-01-31T14:58:46.891Z,99.93
2023-01-31T15:01:20.141Z,99.85
2023-01-31T15:03:54.848Z,100.00
2023-01-31T15:06:26.760Z,99.97
2023-01-31T15:09:27.153Z,100.00
2023-01-31T15:11:57.526Z,100.00
2023-01-31T15:14:36.248Z,100.00
2023-01-31T15:17:23.676Z,100.00
2023-01-31T15:20:13.793Z,100.00
2023-01-31T15:22:44.014Z,99.98
2023-01-31T15:25:26.320Z,100.00
2023-01-31T15:27:56.964Z,99.93
2023-01-31T15:30:26.971Z,99.93
2023-01-31T15:33:01.178Z,100.00
2023-01-31T15:35:34.602Z,100.00
2023-01-31T15:38:16.357Z,100.00
2023-01-31T15:40:44.763Z,100.00
2023-01-31T15:43:22.783Z,100.00
2023-01-31T15:45:51.866Z,100.00
2023-01-31T15:48:22.252Z,100.00
2023-01-31T15:50:52.486Z,100.00
2023-01-31T15:53:23.717Z,100.00
2023-01-31T15:55:55.380Z,100.00
2023-01-31T15:58:26.983Z,100.00
2023-01-31T16:01:00.452Z,100.00
2023-01-31T16:03:32.880Z,100.00
2023-01-31T16:06:00.943Z,100.00
2023-01-31T16:08:33.155Z,100.00
2023-01-31T16:11:04.480Z,100.00
2023-01-31T16:13:35.022Z,100.00
2023-01-31T16:16:05.382Z,100.00
2023-01-31T16:18:35.694Z,100.00
2023-01-31T16:21:15.184Z,100.00
2023-01-31T16:23:43.808Z,100.00
2023-01-31T16:26:15.549Z,100.00
2023-01-31T16:28:46.199Z,100.00
2023-01-31T16:31:17.423Z,100.00
2023-01-31T16:33:49.926Z,100.00
2023-01-31T16:36:23.242Z,100.00
2023-01-31T16:38:58.558Z,100.00
2023-01-31T16:41:44.192Z,100.00
2023-01-31T16:44:17.655Z,100.00
2023-01-31T16:46:48.115Z,100.00
2023-01-31T16:49:22.308Z,100.00
2023-01-31T16:51:54.045Z,100.00
2023-01-31T16:54:24.873Z,100.00
2023-01-31T16:57:20.762Z,100.00
2023-01-31T16:59:50.249Z,100.00
2023-01-31T17:02:25.643Z,100.00
2023-01-31T17:04:56.461Z,100.00
2023-01-31T17:07:27.427Z,100.00
2023-01-31T17:09:59.331Z,100.00
2023-01-31T17:12:29.497Z,100.00
2023-01-31T17:15:01.551Z,100.00
2023-01-31T17:17:33.283Z,100.00
2023-01-31T17:20:02.153Z,100.00
2023-01-31T17:22:30.660Z,100.00
2023-01-31T17:24:59.231Z,100.00
2023-01-31T17:27:27.889Z,100.00
2023-01-31T17:29:56.631Z,100.00
2023-01-31T17:32:25.772Z,100.00
2023-01-31T17:34:54.459Z,100.00
2023-01-31T17:37:30.341Z,100.00
2023-01-31T17:40:00.659Z,100.00
2023-01-31T17:42:29.621Z,100.00
2023-01-31T17:44:58.132Z,100.00
2023-01-31T17:47:26.891Z,100.00
2023-01-31T17:49:56.569Z,100.00
2023-01-31T17:52:25.074Z,100.00
2023-01-31T17:54:53.770Z,100.00
2023-01-31T17:57:22.991Z,100.00
2023-01-31T17:59:52.268Z,100.00
2023-01-31T18:02:21.236Z,100.00
2023-01-31T18:04:50.483Z,100.00
2023-01-31T18:07:19.445Z,100.00
2023-01-31T18:09:48.005Z,100.00
2023-01-31T18:12:16.535Z,100.00
2023-01-31T18:14:45.051Z,100.00
2023-01-31T18:17:14.211Z,100.00
2023-01-31T18:19:42.571Z,100.00
2023-01-31T18:22:10.942Z,100.00
2023-01-31T18:24:40.026Z,100.00
2023-01-31T18:27:08.551Z,100.00
2023-01-31T18:29:37.226Z,100.00
2023-01-31T18:32:07.161Z,100.00
2023-01-31T18:34:37.318Z,100.00
2023-01-31T18:37:12.253Z,100.00
2023-01-31T18:39:41.059Z,100.00
2023-01-31T18:42:09.697Z,100.00
2023-01-31T18:44:38.119Z,100.00
2023-01-31T18:47:06.576Z,100.00
2023-01-31T18:49:35.133Z,100.00
2023-01-31T18:52:05.523Z,100.00
2023-01-31T18:54:36.644Z,100.00
2023-01-31T18:57:05.690Z,100.00
2023-01-31T18:59:34.644Z,100.00
2023-01-31T19:02:03.629Z,100.00
2023-01-31T19:04:32.541Z,100.00
2023-01-31T19:07:01.584Z,100.00
2023-01-31T19:09:30.395Z,100.00
2023-01-31T19:11:58.959Z,100.00
2023-01-31T19:14:27.548Z,100.00
2023-01-31T19:16:57.111Z,100.00
2023-01-31T19:19:26.053Z,100.00
2023-01-31T19:21:55.432Z,100.00
2023-01-31T19:24:24.448Z,100.00
2023-01-31T19:26:52.803Z,100.00
2023-01-31T19:29:21.624Z,100.00
2023-01-31T19:31:50.040Z,100.00
2023-01-31T19:34:18.502Z,100.00
2023-01-31T19:36:48.220Z,100.00
2023-01-31T19:39:16.707Z,100.00
2023-01-31T19:41:45.023Z,100.00
2023-01-31T19:44:13.424Z,100.00
2023-01-31T19:46:43.254Z,100.00
2023-01-31T19:49:12.131Z,100.00
2023-01-31T19:51:41.098Z,100.00
2023-01-31T19:54:14.096Z,100.00
2023-01-31T19:56:41.620Z,100.00
2023-01-31T19:59:11.199Z,100.00
2023-01-31T20:01:39.886Z,100.00
2023-01-31T20:04:08.190Z,100.00
2023-01-31T20:06:36.445Z,100.00
2023-01-31T20:09:06.626Z,100.00
2023-01-31T20:11:36.012Z,100.00
2023-01-31T20:14:07.400Z,100.00
2023-01-31T20:16:36.493Z,100.00
2023-01-31T20:19:06.379Z,100.00
2023-01-31T20:21:35.002Z,100.00
2023-01-31T20:24:03.783Z,100.00
2023-01-31T20:26:32.483Z,100.00
2023-01-31T20:29:01.033Z,100.00
2023-01-31T20:31:29.812Z,100.00
2023-01-31T20:33:58.201Z,100.00
2023-01-31T20:36:26.606Z,100.00
2023-01-31T20:38:55.352Z,100.00
2023-01-31T20:41:24.111Z,100.00
2023-01-31T20:43:53.345Z,100.00
2023-01-31T20:46:21.705Z,100.00
2023-01-31T20:48:50.070Z,100.00
2023-01-31T20:51:18.637Z,100.00
2023-01-31T20:53:46.900Z,100.00
2023-01-31T20:56:15.257Z,100.00
2023-01-31T20:58:43.981Z,100.00
2023-01-31T21:01:12.676Z,100.00
2023-01-31T21:03:41.401Z,100.00
2023-01-31T21:06:10.109Z,100.00
2023-01-31T21:08:39.978Z,100.00
2023-01-31T21:11:10.039Z,100.00
2023-01-31T21:13:39.145Z,100.00
2023-01-31T21:16:10.290Z,100.00
2023-01-31T21:18:42.083Z,100.00
2023-01-31T21:21:13.799Z,100.00
2023-01-31T21:23:42.604Z,100.00
2023-01-31T21:26:11.858Z,100.00
2023-01-31T21:28:40.263Z,100.00
2023-01-31T21:31:11.737Z,100.00
2023-01-31T21:33:40.721Z,100.00
2023-01-31T21:36:11.115Z,99.19
2023-01-31T21:38:39.903Z,98.30
2023-01-31T21:41:28.134Z,97.82
2023-01-31T21:43:56.718Z,98.39
2023-01-31T21:46:26.066Z,98.47
2023-01-31T21:48:55.110Z,98.40
2023-01-31T21:51:25.470Z,97.85
2023-01-31T21:53:54.507Z,98.39
2023-01-31T21:56:25.166Z,99.24
2023-01-31T21:58:55.030Z,99.72
2023-01-31T22:01:25.406Z,99.87
2023-01-31T22:03:54.748Z,99.48
2023-01-31T22:06:25.262Z,98.87
2023-01-31T22:08:55.804Z,98.53
2023-01-31T22:11:25.769Z,98.14
2023-01-31T22:13:56.041Z,98.35
2023-01-31T22:16:25.144Z,98.47
2023-01-31T22:18:53.641Z,98.49
2023-01-31T22:21:24.510Z,99.24
2023-01-31T22:23:55.139Z,98.96
2023-01-31T22:26:26.330Z,98.92
2023-01-31T22:28:57.605Z,98.84
2023-01-31T22:31:26.422Z,99.50
2023-01-31T22:33:55.715Z,98.81
2023-01-31T22:36:24.152Z,98.49
2023-01-31T22:38:53.947Z,98.79
2023-01-31T22:41:23.317Z,99.17
2023-01-31T22:43:53.228Z,98.88
2023-01-31T22:46:23.834Z,98.90
2023-01-31T22:48:53.423Z,99.32
2023-01-31T22:51:25.254Z,98.61
2023-01-31T22:53:53.792Z,98.59
2023-01-31T22:56:24.402Z,98.85
2023-01-31T22:58:56.715Z,98.91
2023-01-31T23:01:27.986Z,98.57
2023-01-31T23:03:58.714Z,98.34
2023-01-31T23:06:28.249Z,98.39
2023-01-31T23:08:57.396Z,98.63
2023-01-31T23:11:26.652Z,98.85
2023-01-31T23:13:56.632Z,99.06
2023-01-31T23:16:41.339Z,99.05
2023-01-31T23:19:10.032Z,99.19
2023-01-31T23:21:41.869Z,99.52
2023-01-31T23:24:10.763Z,99.83
2023-01-31T23:26:39.207Z,99.97
2023-01-31T23:29:07.637Z,100.00
2023-01-31T23:31:36.711Z,100.00
2023-01-31T23:34:06.544Z,100.00
2023-01-31T23:36:34.994Z,100.00
2023-01-31T23:39:04.076Z,99.94
2023-01-31T23:41:32.670Z,99.92
2023-01-31T23:44:01.043Z,99.95
2023-01-31T23:46:29.552Z,99.86
2023-01-31T23:48:58.124Z,99.79
2023-01-31T23:51:27.931Z,99.55
2023-01-31T23:53:56.378Z,99.42
2023-01-31T23:56:25.711Z,98.90
2023-01-31T23:58:54.434Z,98.37
